x

Central Dixon Entrance Buoy (46145) Wave Buoy

8:00pm - Thu 24th Jul 2014 All times are PDT. -7 hours from GMT.

  • Sig Wave height 2.3ft
  • Peak Period 5s
  • Wind
    7mph
  • Sea Temp 56°f
  • Air Temp 55°f
  • Sea Pressure 1016mb
  • Central Dixon Entrance Buoy
  • Central Dixon Entrance Buoy

More Historic Weather Station data

Upgrade to MSW Pro to gain access to the past 30 days of data for over 8000 Wavebouys and Weather Stations around the globe.

Join Pro

Comparision Forecast

View Surf forecast
   
Thu 07/24 8:00pm 2.5ft 5s 7
mph
1016mb 56f 55f
7:00pm 2ft 7s 4 7 mph 1016.2mb 56f 55f
6:00pm 1.6ft 6s 7
mph
1016.1mb 56f 54f
5:00pm 1.6ft 7s 7 9 mph 1016.4mb 56f 54f
4:00pm 2ft 5s 2
mph
1016.6mb 56f 54f
3:00pm 2ft 6s 4 7 mph 1016.6mb 56f 54f
2:00pm 2ft 5s 4
mph
1016.2mb 57f 56f
1:00pm 2ft 8s 2 4 mph 1016.1mb 56f 57f
12:00pm 2ft 5s 7 9 mph 1015.9mb 56f 56f
11:00am 2ft 6s 9
mph
1015.6mb 56f 56f
10:00am 2ft 6s 7 9 mph 1015.3mb 56f 56f
9:00am 2.5ft 8s 7 9 mph 1015.4mb 56f 56f
8:00am 2.5ft 8s 7 9 mph 1015.3mb 56f 56f
7:00am 2.5ft 8s 11 16 mph 1015.2mb 56f 55f
6:00am 2ft 8s 9 13 mph 1015mb 55f 55f
5:00am 2ft 10s 13 16 mph 1015mb 56f 55f
4:00am 2ft 10s 9 11 mph 1015.1mb 56f 56f
3:00am 2.5ft 10s 13 16 mph 1015.3mb 56f 56f
2:00am 2.5ft 9s 11 13 mph 1015.3mb 56f 56f
1:00am 2.5ft 9s 16 20 mph 1015.3mb 56f 56f
12:00am 2.5ft 7s 16 18 mph 1015.5mb 56f 56f
Wed 07/23 11:00pm 2.5ft 10s 16 18 mph 1015.7mb 57f 56f
10:00pm 2.5ft 7s 18 20 mph 1015.7mb 58f 57f
9:00pm 3ft 9s 16 18 mph 1016.1mb 57f 57f
8:00pm 2.5ft 9s 16 20 mph 1016.3mb 58f 57f
7:00pm 2.5ft 7s 16 18 mph 1016.5mb 58f 57f
6:00pm 2.5ft 8s 13 16 mph 1016.9mb 58f 58f
5:00pm 2.5ft 8s 13 16 mph 1017.2mb 58f 57f
4:00pm 2.5ft 10s 13 16 mph 1017.5mb 58f 57f
3:00pm 2ft 10s 9 11 mph 1018mb 58f 57f
2:00pm 2.5ft 9s 11 13 mph 1018.3mb 58f 57f
1:00pm 2ft 8s 11 13 mph 1018.4mb 58f 56f
12:00pm 2.5ft 8s 9 11 mph 1018.6mb 58f 56f
11:00am 2.5ft 8s 9 11 mph 1018.8mb 56f 56f
10:00am 2.5ft 8s 11 13 mph 1019.1mb 56f 56f
9:00am 2.5ft 8s 9
mph
1019.5mb 56f 56f
8:00am 3ft 8s 9 11 mph 1019.5mb 56f 56f
7:00am 3ft 8s 7 11 mph 1019.6mb 56f 56f
6:00am 3ft 7s 9 11 mph 1019.5mb 56f 56f
5:00am 3ft 8s 7 9 mph 1019.6mb 56f 56f
4:00am 2.5ft 8s 9 11 mph 1019.6mb 56f 56f
3:00am 3ft 10s 11 13 mph 1020mb 56f 56f
2:00am 3.5ft 10s 7 9 mph 1020.2mb 56f 56f
1:00am 3ft 8s 7
mph
1020.3mb 56f 56f
12:00am 2.5ft 8s 7 9 mph 1020.4mb 57f 56f
Tue 07/22 11:00pm 3ft 8s 9
mph
1020.2mb 57f 56f
10:00pm 3ft 8s 9 11 mph 1020.2mb 57f 56f
9:00pm 3.5ft 8s 9 11 mph 1020mb 57f 57f
8:00pm 3.5ft 8s 9 11 mph 1019.9mb 57f 57f
7:00pm 3.5ft 9s 9
mph
1019.8mb 58f 57f
6:00pm 3.5ft 8s 7 9 mph 1020mb 57f 57f
5:00pm 3ft 8s 9
mph
1019.9mb 58f 57f
4:00pm 3.5ft 9s 9 11 mph 1019.7mb 58f 57f
3:00pm 3.5ft 9s 4 7 mph 1019.3mb 58f 57f
2:00pm 3.5ft 9s 7 9 mph 1018.7mb 59f 57f
1:00pm 3ft 9s 4 7 mph 1018.4mb 58f 56f
12:00pm 3.5ft 10s 2 4 mph 1018.1mb 57f 57f
11:00am 3.5ft 8s 2 4 mph 1017.8mb 56f 57f
10:00am 3.5ft 9s 2 4 mph 1017.6mb 56f 56f
9:00am 3.5ft 9s 9
mph
1017.3mb 55f 55f
8:00am 3.5ft 8s 7 9 mph 1016.9mb 55f 55f
7:00am 3.5ft 9s 9
mph
1016.6mb 55f 55f
6:00am 3.5ft 8s 9
mph
1016.1mb 55f 55f
5:00am 3ft 8s 9 11 mph 1016mb 55f 55f
4:00am 3ft 10s 7 9 mph 1015.7mb 56f 56f
3:00am 3.5ft 9s 9 13 mph 1015.7mb 55f 56f
2:00am 3.5ft 8s 13 16 mph 1015.4mb 55f 55f
1:00am 4ft 8s 16 18 mph 1015.1mb 55f 54f
12:00am 5ft 10s 16 20 mph 1014.5mb 55f 54f
Mon 07/21 11:00pm 5ft 5s 22 27 mph 1013.9mb 55f 55f
10:00pm 5ft 5s 20 27 mph 1013.4mb 55f 55f
9:00pm 5ft 6s 22 27 mph 1012.9mb 55f 55f
8:00pm 5ft 5s 25 29 mph 1012.3mb 55f 55f
7:00pm 5ft 5s 22 27 mph 1011.9mb 55f 55f
6:00pm 5ft 8s 22 27 mph 1011.8mb 55f 55f
5:00pm 5ft 9s 22 25 mph 1011.5mb 56f 56f
4:00pm 4.5ft 9s 22 27 mph 1010.9mb 56f 55f
3:00pm 5ft 10s 22 27 mph 1010.7mb 55f 55f
2:00pm 4.5ft 8s 20 25 mph 1010.3mb 56f 55f
1:00pm 4.5ft 10s 18 22 mph 1009.8mb 55f 55f
12:00pm 4.5ft 9s 18 22 mph 1009.4mb 55f 55f
11:00am 4ft 8s 16 20 mph 1008.9mb 55f 55f
10:00am 4ft 9s 13 18 mph 1008.6mb 55f 55f
9:00am 4ft 10s 16 18 mph 1008.3mb 55f 55f
8:00am 4.5ft 9s 13 18 mph 1008.3mb 55f 55f
7:00am 3.5ft 9s 16 18 mph 1008.5mb 56f 54f
6:00am 3.5ft 8s 13 18 mph 1008.8mb 56f 55f
5:00am 3.5ft 8s 13 16 mph 1008.9mb 56f 54f